Time;durP1;ratioP1;P1;durP2;ratioP2;P2;SDS_P1;SDS_P2;PMS_P1;PMS_P2;Temp;Humidity;BMP_temperature;BMP_pressure;BME280_temperature;BME280_humidity;BME280_pressure;Samples;Min_cycle;Max_cycle;Signal;HPM_P1;HPM_P2
2022/07/22 00:00:14;;;;;;;19.60;5.60;;;;;;;14.48;100.00;102036.81;5051968;28;20047;-63
2022/07/22 00:02:40;;;;;;;18.58;5.47;;;;;;;14.52;100.00;102044.81;5052042;28;20021;-66
2022/07/22 00:05:06;;;;;;;19.95;5.45;;;;;;;14.48;100.00;102033.28;5052157;28;20029;-65
2022/07/22 00:07:31;;;;;;;20.05;5.78;;;;;;;14.47;100.00;102034.16;5051731;28;20021;-64
2022/07/22 00:09:57;;;;;;;17.83;5.80;;;;;;;14.50;100.00;102028.84;5051992;28;20032;-64
2022/07/22 00:12:22;;;;;;;19.27;5.90;;;;;;;14.54;100.00;102037.75;5051748;28;20021;-64
2022/07/22 00:14:48;;;;;;;20.50;6.30;;;;;;;14.55;100.00;102028.91;5052125;28;20025;-64
2022/07/22 00:17:13;;;;;;;21.35;6.05;;;;;;;14.54;100.00;102030.66;5051919;28;20479;-66
2022/07/22 00:19:38;;;;;;;19.52;6.22;;;;;;;14.56;100.00;102026.25;5051873;28;20029;-63
2022/07/22 00:22:04;;;;;;;19.48;5.75;;;;;;;14.55;100.00;102024.47;5052140;28;20079;-64
2022/07/22 00:24:29;;;;;;;21.85;5.78;;;;;;;14.52;100.00;102029.75;5055676;28;20495;-63
2022/07/22 00:26:55;;;;;;;19.90;6.10;;;;;;;14.56;100.00;102034.22;5055222;28;20025;-64
2022/07/22 00:29:20;;;;;;;21.90;6.05;;;;;;;14.57;100.00;102029.78;5055798;28;20036;-64
2022/07/22 00:31:46;;;;;;;22.15;6.10;;;;;;;14.58;100.00;102024.47;5055251;28;20036;-63
2022/07/22 00:34:11;;;;;;;21.33;6.25;;;;;;;14.56;100.00;102026.25;5055529;28;20033;-64
2022/07/22 00:36:36;;;;;;;20.90;6.15;;;;;;;14.58;100.00;102032.47;5055574;28;20387;-67
2022/07/22 00:39:03;;;;;;;20.13;6.15;;;;;;;14.56;100.00;102026.25;5055295;28;20468;-64
2022/07/22 00:41:28;;;;;;;21.10;6.32;;;;;;;14.56;100.00;102025.34;5055075;28;20021;-64
2022/07/22 00:44:03;;;;;;;21.55;6.68;;;;;;;14.56;100.00;102026.25;5055239;28;20021;-64
2022/07/22 00:46:29;;;;;;;21.77;6.55;;;;;;;14.52;100.00;102029.75;5055039;28;20486;-64
2022/07/22 00:48:56;;;;;;;22.27;6.70;;;;;;;14.53;100.00;102027.97;5054769;28;20041;-64
2022/07/22 00:51:22;;;;;;;21.27;6.72;;;;;;;14.51;100.00;102027.97;5055360;28;20151;-64
2022/07/22 00:53:49;;;;;;;22.35;6.70;;;;;;;14.53;100.00;102030.66;5054851;28;20025;-64
2022/07/22 00:56:15;;;;;;;21.88;6.72;;;;;;;14.56;100.00;102025.34;5054811;28;20112;-74
2022/07/22 00:58:41;;;;;;;23.20;7.28;;;;;;;14.56;100.00;102014.69;5055298;28;20171;-64
2022/07/22 01:01:07;;;;;;;21.75;7.07;;;;;;;14.56;100.00;102020.94;5054914;28;20515;-75
2022/07/22 01:03:32;;;;;;;21.40;7.30;;;;;;;14.57;100.00;102014.69;5054728;28;20437;-74
2022/07/22 01:05:58;;;;;;;21.52;6.90;;;;;;;14.57;100.00;102014.69;5054887;28;20067;-67
2022/07/22 01:08:24;;;;;;;23.48;7.00;;;;;;;14.57;100.00;102013.81;5054778;28;20383;-64
2022/07/22 01:10:50;;;;;;;23.80;7.55;;;;;;;14.57;100.00;102012.03;5054520;28;20033;-64
2022/07/22 01:13:15;;;;;;;23.48;7.10;;;;;;;14.55;100.00;102013.81;5054604;28;20029;-65
2022/07/22 01:15:41;;;;;;;22.80;7.10;;;;;;;14.50;100.00;102012.00;5054490;28;20027;-68
2022/07/22 01:18:06;;;;;;;22.20;6.93;;;;;;;14.51;100.00;102006.69;5054326;28;20024;-67
2022/07/22 01:20:31;;;;;;;22.17;7.25;;;;;;;14.52;100.00;102008.47;5054652;28;20021;-65
2022/07/22 01:22:57;;;;;;;22.83;7.18;;;;;;;14.46;100.00;102004.00;5054283;28;20452;-68
2022/07/22 01:25:22;;;;;;;22.73;7.45;;;;;;;14.38;100.00;102002.16;5054333;28;20383;-75
2022/07/22 01:27:48;;;;;;;22.00;7.43;;;;;;;14.28;100.00;102007.44;5054602;28;20048;-75
2022/07/22 01:30:13;;;;;;;21.83;7.07;;;;;;;14.15;100.00;102002.88;5054246;28;20025;-69
2022/07/22 01:32:38;;;;;;;23.02;7.40;;;;;;;14.04;100.00;102000.16;5054315;28;20032;-64
2022/07/22 01:35:04;;;;;;;21.25;7.13;;;;;;;13.93;100.00;102008.00;5053462;28;20024;-65
2022/07/22 01:37:31;;;;;;;23.08;7.43;;;;;;;13.80;100.00;102006.13;5054313;28;20021;-68
2022/07/22 01:39:56;;;;;;;24.20;7.80;;;;;;;13.71;100.00;102001.59;5054224;28;20438;-67
2022/07/22 01:42:21;;;;;;;23.13;7.88;;;;;;;13.63;100.00;102005.06;5054034;28;20056;-64
2022/07/22 01:44:47;;;;;;;24.85;8.27;;;;;;;13.53;100.00;102007.63;5053885;28;20111;-64
2022/07/22 01:47:13;;;;;;;25.33;7.50;;;;;;;13.49;100.00;102002.28;5054154;28;20017;-64
2022/07/22 01:49:38;;;;;;;24.10;7.60;;;;;;;13.37;100.00;102000.38;5053643;28;20446;-63
2022/07/22 01:52:05;;;;;;;25.98;7.65;;;;;;;13.33;100.00;102004.72;5053728;28;20507;-66
2022/07/22 01:54:30;;;;;;;25.00;7.78;;;;;;;13.27;100.00;102012.63;5053863;28;20078;-73
2022/07/22 01:56:55;;;;;;;22.35;7.80;;;;;;;13.17;100.00;102008.97;5054038;28;20021;-66
2022/07/22 01:59:20;;;;;;;22.00;7.72;;;;;;;13.07;100.00;102005.28;5053559;28;20376;-70
2022/07/22 02:01:46;;;;;;;23.73;8.43;;;;;;;13.13;100.00;102011.56;5053871;28;20047;-73
2022/07/22 02:04:11;;;;;;;25.02;8.38;;;;;;;13.17;100.00;102014.28;5053691;28;20388;-64
2022/07/22 02:06:37;;;;;;;22.65;7.82;;;;;;;13.23;100.00;102006.38;5052123;28;20044;-70
2022/07/22 02:09:03;;;;;;;27.65;8.55;;;;;;;13.31;100.00;102000.25;5053615;28;20044;-64
2022/07/22 02:11:28;;;;;;;23.65;8.55;;;;;;;13.44;100.00;102004.91;5053418;28;20060;-66
2022/07/22 02:13:54;;;;;;;24.38;8.93;;;;;;;13.54;100.00;102009.44;5054011;28;20025;-64
2022/07/22 02:16:19;;;;;;;22.90;8.00;;;;;;;13.58;100.00;102000.59;5053538;28;20045;-65
2022/07/22 02:18:44;;;;;;;24.20;8.52;;;;;;;13.69;100.00;102003.38;5053508;28;20371;-64
2022/07/22 02:21:09;;;;;;;23.88;8.88;;;;;;;13.72;100.00;101999.88;5053597;28;20083;-64
2022/07/22 02:23:35;;;;;;;22.85;7.65;;;;;;;13.73;100.00;102002.53;5053362;28;20450;-64
2022/07/22 02:26:00;;;;;;;22.55;7.95;;;;;;;13.74;100.00;101995.44;5053384;28;20523;-64
2022/07/22 02:28:26;;;;;;;24.55;8.13;;;;;;;13.82;100.00;101998.16;5053549;28;20506;-63
2022/07/22 02:30:51;;;;;;;23.73;8.68;;;;;;;13.83;100.00;102000.84;5053093;28;20049;-64
2022/07/22 02:33:16;;;;;;;24.10;8.52;;;;;;;13.86;100.00;102002.63;5053207;28;20472;-64
2022/07/22 02:35:42;;;;;;;25.92;8.73;;;;;;;13.89;100.00;102003.56;5053540;28;20070;-64
2022/07/22 02:38:07;;;;;;;23.65;8.15;;;;;;;13.86;100.00;101998.22;5053226;28;20117;-63
2022/07/22 02:40:32;;;;;;;25.05;8.63;;;;;;;13.90;100.00;102000.00;5052811;28;20025;-64
2022/07/22 02:42:58;;;;;;;26.33;9.13;;;;;;;13.90;100.00;102001.78;5051982;28;20037;-66
2022/07/22 02:45:24;;;;;;;24.30;9.18;;;;;;;13.90;100.00;102000.00;5052689;28;20033;-64
2022/07/22 02:47:51;;;;;;;26.80;9.20;;;;;;;13.91;100.00;101998.25;5051704;28;20485;-65
2022/07/22 02:50:17;;;;;;;22.58;8.57;;;;;;;14.00;100.00;101997.47;5052812;28;20076;-64
2022/07/22 02:52:42;;;;;;;24.88;9.10;;;;;;;13.99;100.00;101987.69;5052759;28;20445;-64
2022/07/22 02:55:08;;;;;;;26.05;9.18;;;;;;;14.06;100.00;101992.19;5053122;28;20480;-63
2022/07/22 02:57:33;;;;;;;24.60;8.90;;;;;;;14.16;100.00;101988.72;5052856;28;20469;-64
2022/07/22 02:59:59;;;;;;;24.08;8.68;;;;;;;14.16;100.00;101988.72;5052634;28;20021;-64
2022/07/22 03:02:24;;;;;;;23.20;8.52;;;;;;;14.18;100.00;101989.59;5052669;28;20151;-64
2022/07/22 03:04:49;;;;;;;23.83;9.05;;;;;;;14.19;100.00;101987.84;5052730;28;20426;-68
2022/07/22 03:07:15;;;;;;;26.38;8.90;;;;;;;14.23;100.00;101979.91;5052550;28;20028;-69
2022/07/22 03:09:40;;;;;;;24.15;8.80;;;;;;;14.25;100.00;101978.13;5052867;28;20029;-64
2022/07/22 03:12:06;;;;;;;23.92;8.52;;;;;;;14.23;100.00;101982.56;5051079;28;20383;-64
2022/07/22 03:14:31;;;;;;;23.55;8.40;;;;;;;14.19;100.00;101972.78;5052670;28;20119;-70
2022/07/22 03:16:56;;;;;;;22.88;8.15;;;;;;;14.15;100.00;101970.97;5052420;28;20044;-64
2022/07/22 03:19:22;;;;;;;23.20;8.40;;;;;;;14.12;100.00;101973.59;5052368;28;20032;-65
2022/07/22 03:21:47;;;;;;;24.40;8.60;;;;;;;14.10;100.00;101970.06;5052382;28;20464;-67
2022/07/22 03:24:12;;;;;;;27.52;8.68;;;;;;;14.12;100.00;101974.53;5052620;28;20217;-64
2022/07/22 03:26:38;;;;;;;25.40;8.40;;;;;;;14.13;100.00;101973.63;5052619;28;20086;-72
2022/07/22 03:29:03;;;;;;;24.95;9.18;;;;;;;14.08;100.00;101971.81;5052475;28;20029;-74
2022/07/22 03:31:28;;;;;;;23.08;8.80;;;;;;;14.06;100.00;101970.91;5052098;28;20041;-70
2022/07/22 03:33:54;;;;;;;24.33;8.13;;;;;;;14.06;100.00;101970.91;5052091;28;20051;-65
2022/07/22 03:36:19;;;;;;;21.52;8.07;;;;;;;14.02;100.00;101971.75;5052326;28;20025;-74
2022/07/22 03:38:44;;;;;;;25.25;8.13;;;;;;;14.03;100.00;101970.91;5052514;28;20064;-71
2022/07/22 03:41:10;;;;;;;23.58;8.65;;;;;;;14.01;100.00;101972.63;5052193;28;20080;-71
2022/07/22 03:43:35;;;;;;;23.83;7.93;;;;;;;14.00;100.00;101970.88;5052282;28;20560;-65
2022/07/22 03:46:00;;;;;;;23.67;7.95;;;;;;;14.00;100.00;101978.84;5052187;28;20029;-65
2022/07/22 03:48:26;;;;;;;24.60;8.15;;;;;;;13.99;100.00;101985.03;5051869;28;20108;-64
2022/07/22 03:50:52;;;;;;;25.05;9.05;;;;;;;13.99;100.00;101985.03;5052370;28;20082;-65
2022/07/22 03:53:17;;;;;;;24.25;8.70;;;;;;;14.06;100.00;101981.53;5052284;28;20368;-74
2022/07/22 03:55:43;;;;;;;23.60;8.23;;;;;;;14.07;100.00;101986.88;5052464;28;20017;-73
2022/07/22 03:58:08;;;;;;;24.27;8.00;;;;;;;14.07;100.00;101984.22;5054432;28;20025;-66
2022/07/22 04:00:34;;;;;;;21.70;8.10;;;;;;;14.05;100.00;101980.66;5055942;28;20511;-66
2022/07/22 04:02:59;;;;;;;24.42;8.35;;;;;;;14.03;100.00;101982.41;5056202;28;20383;-64
2022/07/22 04:05:24;;;;;;;24.45;8.15;;;;;;;14.07;100.00;101993.97;5055902;28;20491;-74
2022/07/22 04:07:50;;;;;;;25.30;8.40;;;;;;;14.04;100.00;101993.94;5055845;28;20151;-64
2022/07/22 04:10:15;;;;;;;22.25;8.38;;;;;;;14.10;100.00;101994.00;5055976;28;20025;-65
2022/07/22 04:12:41;;;;;;;24.85;8.50;;;;;;;14.13;100.00;101991.34;5051537;28;20063;-64
2022/07/22 04:15:07;;;;;;;24.92;8.23;;;;;;;14.18;100.00;102002.03;5055648;28;20086;-63
2022/07/22 04:17:33;;;;;;;25.38;8.43;;;;;;;14.21;100.00;102000.28;5055757;28;20048;-64
2022/07/22 04:20:00;;;;;;;23.88;8.40;;;;;;;14.25;100.00;101995.88;5055397;28;20440;-64
2022/07/22 04:22:26;;;;;;;23.55;8.38;;;;;;;14.30;100.00;101992.38;5055671;28;20147;-63
2022/07/22 04:24:52;;;;;;;23.33;8.27;;;;;;;14.32;100.00;101991.50;5055688;28;20503;-64
2022/07/22 04:27:17;;;;;;;24.63;8.77;;;;;;;14.35;100.00;101988.84;5055437;28;20104;-64
2022/07/22 04:29:42;;;;;;;23.80;8.70;;;;;;;14.39;100.00;101998.63;5055509;28;20025;-64
2022/07/22 04:32:08;;;;;;;23.38;8.45;;;;;;;14.46;100.00;101992.47;5055677;28;20032;-63
2022/07/22 04:34:33;;;;;;;22.23;8.13;;;;;;;14.45;100.00;101996.03;5055192;28;20028;-64
2022/07/22 04:36:58;;;;;;;23.63;8.98;;;;;;;14.51;100.00;101993.38;5055151;28;20040;-64
2022/07/22 04:39:24;;;;;;;24.65;8.52;;;;;;;14.57;100.00;101988.09;5054266;28;20028;-64
2022/07/22 04:41:49;;;;;;;23.42;8.50;;;;;;;14.61;100.00;101987.28;5055257;28;20032;-64
2022/07/22 04:44:14;;;;;;;25.50;8.57;;;;;;;14.62;100.00;101978.41;5055212;28;20017;-67
2022/07/22 04:46:40;;;;;;;24.58;8.50;;;;;;;14.61;100.00;101979.28;5055274;28;20029;-64
2022/07/22 04:49:05;;;;;;;23.15;8.32;;;;;;;14.55;100.00;101983.66;5054777;28;20044;-64
2022/07/22 04:51:30;;;;;;;25.58;8.80;;;;;;;14.50;100.00;101983.63;5054948;28;20459;-64
2022/07/22 04:53:56;;;;;;;24.70;8.90;;;;;;;14.50;100.00;101977.41;5055167;28;20415;-64
2022/07/22 04:56:21;;;;;;;26.13;9.55;;;;;;;14.50;100.00;101975.63;5054945;28;20025;-64
2022/07/22 04:58:46;;;;;;;23.83;8.88;;;;;;;14.56;100.00;101975.69;5055117;28;20029;-64
2022/07/22 05:01:12;;;;;;;25.52;9.45;;;;;;;14.54;100.00;101974.78;5054807;28;20028;-67
2022/07/22 05:03:41;;;;;;;24.13;8.73;;;;;;;14.65;100.00;101974.88;5054713;28;20071;-66
2022/07/22 05:06:07;;;;;;;26.48;9.48;;;;;;;14.67;100.00;101974.91;5054693;28;20494;-64
2022/07/22 05:08:32;;;;;;;25.52;9.40;;;;;;;14.70;100.00;101972.25;5054224;28;20025;-68
2022/07/22 05:10:58;;;;;;;27.20;9.75;;;;;;;14.78;100.00;101979.38;5053866;28;20116;-70
2022/07/22 05:13:23;;;;;;;25.52;10.15;;;;;;;14.80;100.00;101966.97;5055108;28;20036;-65
2022/07/22 05:15:49;;;;;;;25.60;9.68;;;;;;;14.81;100.00;101968.75;5054520;28;20582;-64
2022/07/22 05:18:14;;;;;;;27.02;10.93;;;;;;;14.80;100.00;101966.09;5054743;28;20032;-63
2022/07/22 05:20:40;;;;;;;27.15;10.80;;;;;;;14.80;100.00;101974.06;5050044;28;20024;-69
2022/07/22 05:23:05;;;;;;;26.42;10.77;;;;;;;14.83;100.00;101974.09;5049224;28;20163;-65
2022/07/22 05:25:30;;;;;;;27.13;10.80;;;;;;;14.88;100.00;101967.03;5050317;28;20476;-65
2022/07/22 05:27:56;;;;;;;26.08;11.10;;;;;;;14.90;100.00;101977.69;5050406;28;20064;-66
2022/07/22 05:30:21;;;;;;;28.33;11.15;;;;;;;14.93;100.00;101970.56;5049988;28;20033;-80
2022/07/22 05:32:47;;;;;;;25.27;10.93;;;;;;;14.97;100.00;101971.50;5051596;28;20025;-83
2022/07/22 05:35:12;;;;;;;28.42;10.88;;;;;;;15.04;100.00;101969.72;5051391;28;20072;-83
2022/07/22 05:37:38;;;;;;;26.95;10.80;;;;;;;15.11;100.00;101972.41;5052331;28;20443;-82
2022/07/22 05:40:04;;;;;;;27.30;10.45;;;;;;;15.19;100.00;101980.44;5052327;28;20032;-68
2022/07/22 05:42:29;;;;;;;24.42;10.85;;;;;;;15.34;100.00;101984.91;5050356;28;20162;-74
2022/07/22 05:44:54;;;;;;;29.10;10.75;;;;;;;15.46;100.00;101979.59;5051867;28;20198;-81
2022/07/22 05:47:20;;;;;;;27.77;10.70;;;;;;;15.59;100.00;101985.84;5052560;28;20379;-77
2022/07/22 05:49:45;;;;;;;25.05;9.90;;;;;;;15.64;100.00;101984.09;5052115;28;20123;-80
2022/07/22 05:52:10;;;;;;;26.88;10.65;;;;;;;15.67;100.00;101981.44;5052620;28;20454;-80
2022/07/22 05:54:36;;;;;;;24.58;9.82;;;;;;;15.73;100.00;101983.22;5051792;28;20129;-66
2022/07/22 05:57:01;;;;;;;24.83;8.45;;;;;;;15.69;100.00;101984.09;5051066;28;20033;-66
2022/07/22 05:59:26;;;;;;;22.85;8.75;;;;;;;15.73;100.00;101984.97;5052163;28;20029;-65
2022/07/22 06:01:52;;;;;;;25.35;7.93;;;;;;;15.77;100.00;101978.75;5051767;28;20044;-66
2022/07/22 06:04:17;;;;;;;24.50;8.23;;;;;;;15.79;100.00;101983.25;5051778;28;20024;-65
2022/07/22 06:06:43;;;;;;;23.67;7.72;;;;;;;15.86;100.00;101974.38;5050975;28;20021;-65
2022/07/22 06:09:08;;;;;;;23.90;7.45;;;;;;;15.96;100.00;101982.34;5052044;28;20379;-66
2022/07/22 06:11:33;;;;;;;22.38;7.55;;;;;;;16.15;100.00;101975.22;5051460;28;20090;-66
2022/07/22 06:13:59;;;;;;;22.58;6.95;;;;;;;16.32;100.00;101972.56;5051635;28;20029;-65
2022/07/22 06:16:24;;;;;;;21.13;7.20;;;;;;;16.51;100.00;101984.97;5050689;28;20112;-66
2022/07/22 06:18:49;;;;;;;21.48;6.78;;;;;;;16.71;100.00;101982.22;5050913;28;20115;-65
2022/07/22 06:21:14;;;;;;;21.25;6.75;;;;;;;16.72;100.00;101980.47;5051095;28;20052;-66
2022/07/22 06:23:40;;;;;;;20.50;6.10;;;;;;;16.83;100.00;101983.09;5051408;28;20068;-66
2022/07/22 06:26:05;;;;;;;20.90;6.20;;;;;;;16.85;100.00;101984.88;5051075;28;20108;-64
2022/07/22 06:28:31;;;;;;;22.60;6.38;;;;;;;16.89;100.00;101980.44;5051133;28;20464;-64
2022/07/22 06:30:56;;;;;;;21.33;6.15;;;;;;;16.83;100.00;101980.44;5050927;28;20063;-66
2022/07/22 06:33:22;;;;;;;20.73;6.50;;;;;;;16.78;100.00;101976.91;5051093;28;20104;-64
2022/07/22 06:35:47;;;;;;;20.17;6.30;;;;;;;16.78;100.00;101972.44;5050972;28;20394;-64
2022/07/22 06:38:12;;;;;;;21.55;6.63;;;;;;;16.82;100.00;101976.88;5051180;28;20025;-64
2022/07/22 06:40:37;;;;;;;21.83;6.97;;;;;;;16.84;100.00;101976.88;5050950;28;20028;-64
2022/07/22 06:43:03;;;;;;;20.85;6.07;;;;;;;16.79;100.00;101982.22;5050352;28;20031;-63
2022/07/22 06:45:29;;;;;;;22.27;6.68;;;;;;;16.81;100.00;101969.75;5050909;28;20017;-64
2022/07/22 06:47:54;;;;;;;19.73;6.25;;;;;;;16.85;100.00;101967.97;5051137;28;20450;-63
2022/07/22 06:50:19;;;;;;;19.05;6.30;;;;;;;17.01;100.00;101977.72;5050887;28;20049;-63
2022/07/22 06:52:45;;;;;;;20.92;6.20;;;;;;;17.12;100.00;101969.63;5050788;28;20096;-64
2022/07/22 06:55:11;;;;;;;23.15;6.47;;;;;;;17.30;100.00;101971.34;5052352;28;20063;-64
2022/07/22 06:57:36;;;;;;;18.92;5.70;;;;;;;17.49;100.00;101981.91;5052472;28;20021;-63
2022/07/22 07:00:07;;;;;;;16.30;4.50;;;;;;;17.69;100.00;101985.34;5051505;28;20033;-63
2022/07/22 07:02:32;;;;;;;16.35;4.82;;;;;;;17.73;100.00;101980.84;5052901;28;20032;-63
2022/07/22 07:04:58;;;;;;;15.80;4.47;;;;;;;17.78;100.00;101979.94;5052555;28;20024;-63
2022/07/22 07:07:23;;;;;;;18.90;5.57;;;;;;;17.96;100.00;101974.47;5052796;28;20027;-63
2022/07/22 07:09:48;;;;;;;19.23;5.00;;;;;;;18.29;100.00;101975.97;5052558;28;20527;-63
2022/07/22 07:12:13;;;;;;;16.60;4.50;;;;;;;18.43;100.00;101968.66;5052439;28;20033;-63
2022/07/22 07:14:39;;;;;;;18.10;4.63;;;;;;;18.45;100.00;101961.50;5052422;28;20486;-63
2022/07/22 07:17:04;;;;;;;17.38;4.80;;;;;;;18.44;100.00;101961.53;5052547;28;20110;-63
2022/07/22 07:19:29;;;;;;;13.80;4.20;;;;;;;18.50;100.00;101957.91;5052699;28;20112;-63
2022/07/22 07:21:55;;;;;;;13.18;3.50;;;;;;;18.51;100.00;101959.66;5052157;28;20053;-65
2022/07/22 07:24:20;;;;;;;10.43;3.30;;;;;;;18.64;100.00;101966.66;5052794;28;20033;-63
2022/07/22 07:26:45;;;;;;;13.38;3.60;;;;;;;18.90;100.00;101954.75;5052138;28;20021;-63
2022/07/22 07:29:10;;;;;;;16.48;3.50;;;;;;;19.05;100.00;101956.38;5052261;28;20421;-63
2022/07/22 07:31:36;;;;;;;14.50;4.10;;;;;;;19.09;100.00;101958.97;5052242;28;20112;-63
2022/07/22 07:34:01;;;;;;;16.08;4.13;;;;;;;19.33;100.00;101959.53;5055822;28;20021;-63
2022/07/22 07:36:27;;;;;;;13.32;3.60;;;;;;;19.44;100.00;101964.72;5056781;28;20025;-64
2022/07/22 07:38:52;;;;;;;14.30;3.85;;;;;;;19.62;100.00;101977.88;5056649;28;20028;-66
2022/07/22 07:41:18;;;;;;;12.77;3.72;;;;;;;19.78;100.00;101967.81;5056225;28;20024;-63
2022/07/22 07:43:43;;;;;;;8.40;2.70;;;;;;;19.86;100.00;101962.31;5056597;28;20625;-67
2022/07/22 07:46:09;;;;;;;10.00;2.55;;;;;;;19.90;100.00;101957.78;5056165;28;20021;-65
2022/07/22 07:48:34;;;;;;;10.77;2.60;;;;;;;19.97;100.00;101954.09;5051883;28;20032;-68
2022/07/22 07:50:59;;;;;;;7.70;2.42;;;;;;;19.90;100.00;101952.44;5056258;28;20036;-70
2022/07/22 07:53:26;;;;;;;7.47;2.75;;;;;;;19.93;100.00;101957.75;5056179;28;20052;-64
2022/07/22 07:55:51;;;;;;;7.07;2.40;;;;;;;19.96;100.00;101963.03;5056121;28;20021;-64
2022/07/22 07:58:17;;;;;;;8.90;2.60;;;;;;;20.02;100.00;101963.84;5056018;28;20460;-68
2022/07/22 08:00:43;;;;;;;11.40;3.20;;;;;;;19.68;100.00;101971.53;5055962;28;20021;-64
2022/07/22 08:03:09;;;;;;;11.00;3.20;;;;;;;19.54;100.00;101962.81;5056117;28;20047;-64
2022/07/22 08:05:35;;;;;;;12.02;3.33;;;;;;;19.39;100.00;101962.13;5055949;28;20025;-65
2022/07/22 08:08:01;;;;;;;13.52;3.30;;;;;;;19.51;100.00;101961.94;5055552;28;20536;-63
2022/07/22 08:10:27;;;;;;;12.13;3.30;;;;;;;19.61;100.00;101961.78;5055835;28;20033;-67
2022/07/22 08:12:53;;;;;;;9.15;3.30;;;;;;;19.68;100.00;101958.09;5055480;28;20380;-69
2022/07/22 08:15:19;;;;;;;11.43;3.20;;;;;;;19.58;100.00;101957.34;5055707;28;20114;-64
2022/07/22 08:17:44;;;;;;;12.57;3.30;;;;;;;19.68;100.00;101950.06;5055674;28;20076;-66
2022/07/22 08:20:10;;;;;;;10.00;2.90;;;;;;;19.79;100.00;101948.13;5055433;28;20378;-70
2022/07/22 08:22:35;;;;;;;12.05;3.10;;;;;;;20.10;100.00;101952.97;5055802;28;20021;-67
2022/07/22 08:25:01;;;;;;;14.10;3.10;;;;;;;20.37;100.00;101958.72;5053940;28;20151;-65
2022/07/22 08:27:26;;;;;;;10.40;2.90;;;;;;;20.64;100.00;101961.81;5055163;28;20032;-67
2022/07/22 08:29:52;;;;;;;12.32;2.90;;;;;;;20.90;100.00;101959.47;5054799;28;20380;-64
2022/07/22 08:32:18;;;;;;;12.20;3.10;;;;;;;21.20;100.00;101954.38;5054883;28;20044;-67
2022/07/22 08:34:43;;;;;;;12.73;2.92;;;;;;;21.40;100.00;101961.06;5055252;28;20121;-64
2022/07/22 08:37:09;;;;;;;14.70;3.28;;;;;;;21.47;100.00;101954.63;5055126;28;20017;-64
2022/07/22 08:39:35;;;;;;;12.52;3.10;;;;;;;21.35;98.83;101952.25;5055145;28;20063;-69
2022/07/22 08:42:01;;;;;;;13.27;3.22;;;;;;;21.37;100.00;101945.00;5055075;28;20110;-63
2022/07/22 08:44:31;;;;;;;12.38;3.00;;;;;;;21.10;99.30;101938.47;5054662;28;20104;-69
2022/07/22 08:46:56;;;;;;;13.93;3.00;;;;;;;21.05;100.00;101941.25;5051401;28;20041;-65
2022/07/22 08:49:22;;;;;;;9.65;2.78;;;;;;;21.11;99.57;101951.88;5054672;28;20040;-64
2022/07/22 08:51:47;;;;;;;13.95;3.00;;;;;;;21.07;97.64;101942.09;5054726;28;20111;-68
2022/07/22 08:54:12;;;;;;;11.38;2.90;;;;;;;21.11;98.90;101941.09;5055029;28;20052;-64
2022/07/22 08:56:39;;;;;;;10.63;2.80;;;;;;;21.20;99.07;101940.91;5055078;28;20024;-68
2022/07/22 08:59:04;;;;;;;9.07;2.90;;;;;;;21.16;96.24;101933.84;5054916;28;20400;-65
2022/07/22 09:01:30;;;;;;;7.53;2.78;;;;;;;21.22;94.13;101940.88;5054770;28;20027;-68
2022/07/22 09:03:57;;;;;;;13.38;2.83;;;;;;;21.37;95.67;101942.31;5054640;28;20032;-67
2022/07/22 09:06:25;;;;;;;10.35;2.80;;;;;;;21.50;94.10;101938.41;5054738;28;20068;-67
2022/07/22 09:08:58;;;;;;;13.25;2.97;;;;;;;21.61;93.23;101942.69;5054679;28;20025;-69
2022/07/22 09:11:25;;;;;;;10.25;3.00;;;;;;;21.69;92.66;101946.94;5054418;28;20072;-63
2022/07/22 09:13:52;;;;;;;9.95;3.03;;;;;;;21.57;95.72;101945.44;5054303;28;20090;-63
2022/07/22 09:16:37;;;;;;;11.82;3.03;;;;;;;21.70;98.29;101950.53;5054733;28;20040;-63
2022/07/22 09:19:03;;;;;;;14.32;3.40;;;;;;;21.55;94.58;101944.63;5052104;28;20074;-64
2022/07/22 09:21:31;;;;;;;12.63;3.30;;;;;;;21.51;93.46;101940.22;5054666;28;20025;-63
2022/07/22 09:23:57;;;;;;;13.85;3.45;;;;;;;21.48;93.65;101936.69;5050583;28;20032;-64
2022/07/22 09:26:33;;;;;;;13.23;3.30;;;;;;;21.44;95.17;101938.56;5054392;28;20025;-63
2022/07/22 09:28:59;;;;;;;9.57;3.05;;;;;;;21.54;89.73;101933.91;5050588;28;20029;-64
2022/07/22 09:31:31;;;;;;;7.90;2.88;;;;;;;21.68;92.44;101930.84;5050143;28;20025;-64
2022/07/22 09:33:57;;;;;;;10.70;3.20;;;;;;;21.88;90.87;101928.53;5050433;28;20021;-64
2022/07/22 09:36:23;;;;;;;12.00;3.00;;;;;;;22.14;89.60;101929.66;5054094;28;20468;-63
2022/07/22 09:38:48;;;;;;;10.98;3.40;;;;;;;22.25;84.19;101922.19;5053943;28;20044;-64
2022/07/22 09:41:14;;;;;;;14.93;3.40;;;;;;;22.41;87.88;101924.44;5053372;28;20025;-64
2022/07/22 09:43:39;;;;;;;11.02;3.00;;;;;;;22.63;82.28;101922.06;5054152;28;20095;-63
2022/07/22 09:46:05;;;;;;;9.85;2.97;;;;;;;22.68;75.87;101914.69;5054043;28;20092;-63
2022/07/22 09:48:30;;;;;;;13.13;3.10;;;;;;;22.96;81.33;101912.06;5053738;28;20468;-64
2022/07/22 09:50:57;;;;;;;11.65;3.20;;;;;;;23.29;79.67;101911.94;5054027;28;20044;-63
2022/07/22 09:53:26;;;;;;;11.00;3.20;;;;;;;23.69;76.93;101915.13;5053829;28;20075;-64
2022/07/22 09:55:52;;;;;;;10.57;3.10;;;;;;;23.84;67.53;101913.75;5053354;28;20020;-64
2022/07/22 09:58:17;;;;;;;10.27;3.08;;;;;;;24.37;66.48;101912.81;5053951;28;20408;-67
2022/07/22 10:00:43;;;;;;;11.32;3.28;;;;;;;25.06;65.61;101915.59;5053801;28;20367;-70
2022/07/22 10:03:17;;;;;;;12.65;3.45;;;;;;;24.78;65.62;101915.78;5054040;28;20036;-69
2022/07/22 10:05:43;;;;;;;13.70;3.42;;;;;;;24.42;65.84;101905.41;5053989;28;20033;-67
2022/07/22 10:08:09;;;;;;;14.75;3.70;;;;;;;24.16;61.86;101909.06;5053318;28;20036;-67
2022/07/22 10:10:36;;;;;;;12.85;3.42;;;;;;;24.27;65.92;101914.06;5052035;28;20071;-65
2022/07/22 10:13:04;;;;;;;12.93;3.40;;;;;;;24.27;65.44;101923.06;5053474;28;20536;-65
2022/07/22 10:15:31;;;;;;;10.80;3.40;;;;;;;24.39;66.71;101918.16;5053619;28;20032;-64
2022/07/22 10:18:00;;;;;;;14.70;3.80;;;;;;;24.22;67.36;101914.25;5053274;28;20055;-64
2022/07/22 10:20:28;;;;;;;14.98;3.70;;;;;;;24.17;66.62;101910.81;5053500;28;20036;-67
2022/07/22 10:22:57;;;;;;;13.75;3.75;;;;;;;24.23;65.54;101913.28;5053119;28;20028;-66
2022/07/22 10:25:26;;;;;;;11.95;3.97;;;;;;;24.00;67.30;101920.41;5052939;28;20029;-63
2022/07/22 10:28:00;;;;;;;14.43;4.00;;;;;;;23.72;67.87;101922.25;5053280;28;20075;-67
2022/07/22 10:30:27;;;;;;;14.77;4.10;;;;;;;23.61;68.63;101914.53;5050336;28;20124;-63
2022/07/22 10:33:12;;;;;;;14.25;3.88;;;;;;;25.41;65.02;101928.66;5052925;28;20083;-64
2022/07/22 10:35:43;;;;;;;10.75;3.40;;;;;;;28.22;44.06;101915.59;5052902;28;20040;-69
2022/07/22 10:38:10;;;;;;;12.98;3.50;;;;;;;30.06;37.37;101914.25;5052759;28;20029;-65
2022/07/22 10:40:50;;;;;;;12.38;3.33;;;;;;;30.72;37.06;101922.88;5052985;28;20476;-68
2022/07/22 10:43:21;;;;;;;10.32;3.25;;;;;;;31.71;33.64;101926.47;5053094;28;20028;-64
2022/07/22 10:46:08;;;;;;;12.50;3.70;;;;;;;31.86;32.75;101914.47;5052935;28;20375;-64
2022/07/22 10:48:36;;;;;;;13.60;3.80;;;;;;;31.86;31.65;101909.00;5050471;28;20033;-64
2022/07/22 10:51:16;;;;;;;12.32;3.85;;;;;;;32.93;31.92;101913.31;5052820;28;20151;-70
2022/07/22 10:53:56;;;;;;;9.45;3.50;;;;;;;34.14;30.80;101904.16;5052592;28;20025;-67
2022/07/22 10:56:23;;;;;;;11.52;3.50;;;;;;;34.08;25.95;101902.78;5049385;28;20044;-67
2022/07/22 10:59:14;;;;;;;13.00;3.40;;;;;;;33.78;30.54;101893.22;5048676;28;20048;-67
2022/07/22 11:01:43;;;;;;;11.25;3.65;;;;;;;33.47;27.81;101883.75;5051614;28;20112;-68
2022/07/22 11:04:15;;;;;;;11.98;3.40;;;;;;;32.48;29.45;101889.16;5052587;28;20187;-70
2022/07/22 11:06:42;;;;;;;11.90;3.50;;;;;;;31.87;31.50;101877.09;5052345;28;20392;-65